Terminal Aerodrome Forecast
Issued by NWS

Home | Current Version | Previous Version | Text Only | Print | Product List | Glossary On
Versions: 1 2 3 4 5 6 7 8 9 10 11 12 13 14 15 16
000
FTUS43 KLSX 272333
TAFUIN
TAF
KUIN 272333Z 2800/2824 13008KT P6SM SCT080 BKN250
     FM280500 16011KT P6SM VCTS OVC025CB
     FM281000 17009KT P6SM OVC040
     FM281400 19013G19KT P6SM OVC025
     FM281700 20014G21KT P6SM SCT100
     FM282000 21015G23KT P6SM VCTS BKN090CB=

USA.gov is the U.S. government's official web portal to all federal, state and local government web resources and services.